Huvudsida
METAR-TAF:

METAR-TAF

Flygplatser :

Malmö Airport

Malmö, Sverige

latitud: 55-33N, longitud: 013-22E, höjd: 106 m

Aktuellt väderrapport

Denna rapport gjordes för 35 minuter sedan, klockan 02:20 UTC
Vind 4 kt från nordväst
Temperatur 6°C
Fuktighet 93%
Tryck 1022 hPa
Sikt 10 km eller mer
Inga moln under 1 500 m eller inga cumulonimbus

METAR: ESMS 190220Z 32004KT CAVOK 06/05 Q1022

Tid: 04:55 (02:55 UTC)

Väderprognos

Denna rapport gjordes för 3 timmar och 36 minuter sedan, klockan 23:19 UTC
Prognos gäller från 19 kl. 00 UTC till 19 kl. 24 UTC
Vind 10 kt från väst/nordväst
Sikt 10 km eller mer
Få moln på en höjd av 3000 ft

TAF: ESMS 182319Z 1900/1924 30010KT 9999 FEW030

Aktuella väderrapporter och prognoser från 4000 flygplatser (METAR- och TAF-rapporter).

De tillgängliga stationerna syns som gula och röda prickar på kartan.

För musen över prickarna för att se namnen på stationerna.

Klicka sedan för att få väderrapporter och prognoser.

För att ändra kartan: Klicka på de gröna knapparna med ett svart kors på för att zooma in; den gröna knappen med ett streck på för att zooma ut; eller på de gröna pilarna för angränsande kartor.


METAR-TAF: